createdAt,value
2023-07-05T00:00:18.318Z,2.65
2023-07-05T00:02:48.352Z,2.97
2023-07-05T00:05:18.586Z,3.30
2023-07-05T00:07:48.711Z,3.22
2023-07-05T00:10:21.644Z,3.15
2023-07-05T00:12:51.617Z,2.88
2023-07-05T00:15:21.704Z,3.58
2023-07-05T00:17:51.744Z,2.67
2023-07-05T00:20:21.881Z,3.28
2023-07-05T00:22:51.976Z,3.47
2023-07-05T00:25:24.587Z,3.30
2023-07-05T00:27:54.505Z,3.15
2023-07-05T00:30:24.724Z,3.05
2023-07-05T00:32:54.691Z,3.22
2023-07-05T00:35:24.825Z,3.15
2023-07-05T00:37:54.872Z,4.00
2023-07-05T00:40:27.489Z,3.50
2023-07-05T00:42:57.496Z,3.25
2023-07-05T00:45:55.789Z,4.07
2023-07-05T00:48:29.443Z,3.92
2023-07-05T00:51:01.069Z,3.55
2023-07-05T00:53:31.684Z,3.85
2023-07-05T00:58:35.085Z,4.18
2023-07-05T01:01:05.841Z,4.32
2023-07-05T01:03:37.354Z,3.90
2023-07-05T01:06:09.421Z,3.90
2023-07-05T01:08:39.588Z,3.85
2023-07-05T01:13:47.663Z,3.88
2023-07-05T01:16:27.098Z,4.47
2023-07-05T01:19:04.904Z,5.03
2023-07-05T01:21:41.097Z,4.57
2023-07-05T01:24:32.001Z,4.68
2023-07-05T01:27:31.820Z,5.00
2023-07-05T01:30:25.232Z,4.68
2023-07-05T01:33:01.554Z,4.57
2023-07-05T01:35:35.003Z,4.93
2023-07-05T01:38:09.486Z,6.10
2023-07-05T01:40:59.542Z,4.88
2023-07-05T01:43:30.648Z,4.85
2023-07-05T01:46:19.958Z,5.07
2023-07-05T01:49:18.616Z,4.55
2023-07-05T01:51:52.590Z,4.93
2023-07-05T01:54:25.813Z,4.63
2023-07-05T01:57:00.198Z,4.50
2023-07-05T01:59:35.774Z,5.03
2023-07-05T02:02:07.379Z,4.82
2023-07-05T02:04:40.760Z,5.75
2023-07-05T02:07:11.021Z,4.70
2023-07-05T02:09:44.056Z,4.65
2023-07-05T02:12:14.444Z,4.90
2023-07-05T02:14:44.421Z,5.88
2023-07-05T02:17:14.624Z,5.00
2023-07-05T02:19:47.166Z,4.80
2023-07-05T02:25:15.520Z,4.60
2023-07-05T02:27:45.409Z,4.50
2023-07-05T02:30:16.468Z,4.63
2023-07-05T02:32:47.377Z,5.13
2023-07-05T02:35:20.731Z,5.32
2023-07-05T02:37:51.215Z,4.65
2023-07-05T02:40:21.212Z,4.95
2023-07-05T02:42:50.975Z,4.57
2023-07-05T02:45:21.275Z,4.72
2023-07-05T02:47:51.174Z,4.65
2023-07-05T02:50:23.933Z,4.78
2023-07-05T02:52:53.732Z,4.22
2023-07-05T02:55:23.594Z,4.57
2023-07-05T02:57:53.466Z,4.90
2023-07-05T03:00:24.188Z,4.55
2023-07-05T03:02:54.229Z,4.55
2023-07-05T03:05:26.799Z,4.50
2023-07-05T03:07:56.762Z,4.97
2023-07-05T03:10:26.629Z,4.22
2023-07-05T03:12:56.486Z,5.20
2023-07-05T03:15:26.361Z,4.90
2023-07-05T03:17:56.199Z,6.32
2023-07-05T03:20:28.691Z,5.57
2023-07-05T03:22:58.609Z,4.57
2023-07-05T03:25:28.835Z,5.00
2023-07-05T03:27:58.652Z,5.15
2023-07-05T03:30:28.797Z,6.07
2023-07-05T03:32:59.232Z,5.40
2023-07-05T03:35:33.746Z,5.93
2023-07-05T03:38:03.651Z,5.57
2023-07-05T03:40:33.410Z,6.40
2023-07-05T03:43:05.817Z,5.60
2023-07-05T03:45:38.492Z,5.72
2023-07-05T03:48:08.762Z,6.43
2023-07-05T03:50:41.169Z,6.32
2023-07-05T03:53:11.448Z,6.22
2023-07-05T03:55:41.370Z,6.38
2023-07-05T03:58:11.137Z,5.95
2023-07-05T04:00:40.921Z,6.10
2023-07-05T04:03:11.285Z,7.20
2023-07-05T04:05:43.758Z,6.25
2023-07-05T04:08:13.532Z,7.15
2023-07-05T04:10:50.366Z,7.25
2023-07-05T04:18:19.354Z,6.53
2023-07-05T04:20:52.028Z,7.07
2023-07-05T04:23:22.162Z,6.95
2023-07-05T04:25:51.941Z,7.82
2023-07-05T04:28:21.770Z,7.15
2023-07-05T04:30:51.847Z,6.75
2023-07-05T04:33:21.754Z,7.82
2023-07-05T04:35:55.486Z,7.63
2023-07-05T04:38:25.492Z,7.03
2023-07-05T04:40:55.847Z,6.72
2023-07-05T04:43:54.642Z,6.93
2023-07-05T04:46:25.095Z,7.32
2023-07-05T04:53:56.818Z,7.15
2023-07-05T04:56:26.585Z,7.18
2023-07-05T04:58:56.354Z,7.53
2023-07-05T05:01:26.832Z,7.30
2023-07-05T05:03:56.826Z,8.30
2023-07-05T05:06:29.350Z,7.57
2023-07-05T05:09:00.111Z,8.32
2023-07-05T05:11:30.737Z,8.77
2023-07-05T05:14:01.286Z,7.72
2023-07-05T05:16:31.133Z,8.27
2023-07-05T05:19:00.890Z,7.50
2023-07-05T05:21:33.205Z,7.38
2023-07-05T05:24:03.673Z,7.82
2023-07-05T05:26:33.410Z,7.32
2023-07-05T05:29:03.169Z,8.57
2023-07-05T05:31:32.967Z,8.00
2023-07-05T05:34:03.724Z,8.18
2023-07-05T05:36:36.041Z,8.18
2023-07-05T05:39:06.395Z,8.05
2023-07-05T05:41:36.161Z,7.95
2023-07-05T05:44:05.881Z,8.68
2023-07-05T05:46:35.709Z,7.80
2023-07-05T05:49:05.497Z,7.78
2023-07-05T05:51:37.911Z,7.63
2023-07-05T05:54:07.676Z,7.82
2023-07-05T05:56:37.778Z,9.20
2023-07-05T05:59:07.555Z,7.82
2023-07-05T06:01:37.390Z,7.65
2023-07-05T06:04:07.567Z,7.40
2023-07-05T06:06:40.015Z,7.72
2023-07-05T06:09:11.356Z,7.88
2023-07-05T06:11:41.123Z,8.05
2023-07-05T06:14:12.030Z,7.22
2023-07-05T06:16:41.796Z,7.47
2023-07-05T06:19:11.588Z,7.93
2023-07-05T06:21:43.927Z,7.95
2023-07-05T06:24:13.774Z,7.93
2023-07-05T06:26:43.543Z,8.73
2023-07-05T06:29:13.477Z,8.77
2023-07-05T06:31:43.291Z,8.50
2023-07-05T06:34:13.043Z,8.52
2023-07-05T06:36:45.524Z,8.63
2023-07-05T06:39:15.354Z,8.75
2023-07-05T06:41:45.163Z,8.38
2023-07-05T06:44:14.924Z,7.75
2023-07-05T06:46:44.802Z,8.93
2023-07-05T06:49:14.629Z,7.93
2023-07-05T06:51:47.063Z,8.05
2023-07-05T06:54:16.845Z,8.43
2023-07-05T06:56:46.602Z,8.55
2023-07-05T06:59:16.387Z,9.30
2023-07-05T07:01:46.551Z,7.15
2023-07-05T07:04:16.865Z,8.10
2023-07-05T07:06:49.336Z,9.32
2023-07-05T07:09:19.555Z,7.40
2023-07-05T07:11:49.303Z,7.72
2023-07-05T07:14:19.058Z,7.55
2023-07-05T07:16:49.010Z,7.05
2023-07-05T07:19:19.032Z,7.68
2023-07-05T07:21:51.430Z,7.65
2023-07-05T07:24:21.250Z,6.70
2023-07-05T07:26:52.648Z,7.00
2023-07-05T07:29:22.429Z,8.45
2023-07-05T07:31:52.234Z,8.05
2023-07-05T07:34:22.089Z,8.57
2023-07-05T07:36:54.458Z,6.82
2023-07-05T07:39:24.344Z,8.15
2023-07-05T07:41:54.108Z,7.72
2023-07-05T07:44:23.887Z,8.43
2023-07-05T07:46:53.687Z,8.60
2023-07-05T07:49:23.760Z,6.70
2023-07-05T07:51:56.182Z,7.10
2023-07-05T07:54:27.709Z,6.32
2023-07-05T07:56:58.838Z,6.70
2023-07-05T08:17:58.475Z,6.10
2023-07-05T08:20:28.203Z,6.22
2023-07-05T08:22:57.961Z,6.30
2023-07-05T08:25:27.701Z,5.53
2023-07-05T08:27:57.722Z,4.10
2023-07-05T08:30:30.100Z,4.10
2023-07-05T08:32:59.902Z,3.83
2023-07-05T08:35:30.813Z,3.58
2023-07-05T08:38:00.535Z,3.42
2023-07-05T08:40:36.903Z,2.95
2023-07-05T08:43:09.649Z,3.05
2023-07-05T08:45:47.076Z,2.63
2023-07-05T08:48:19.444Z,2.92
2023-07-05T08:51:00.850Z,2.75
2023-07-05T08:53:48.679Z,2.58
2023-07-05T08:56:23.144Z,3.45
2023-07-05T08:58:57.519Z,2.78
2023-07-05T09:01:32.604Z,3.15
2023-07-05T09:04:02.632Z,2.80
2023-07-05T09:06:39.566Z,3.00
2023-07-05T09:09:22.183Z,3.78
2023-07-05T09:12:04.338Z,3.17
2023-07-05T09:14:43.779Z,3.00
2023-07-05T09:17:22.259Z,3.50
2023-07-05T09:19:57.578Z,3.45
2023-07-05T09:22:31.156Z,3.50
2023-07-05T09:25:01.051Z,3.58
2023-07-05T09:27:33.302Z,2.80
2023-07-05T09:30:05.879Z,3.13
2023-07-05T09:32:42.798Z,2.60
2023-07-05T09:35:17.420Z,3.45
2023-07-05T09:37:54.161Z,3.42
2023-07-05T09:40:27.579Z,3.28
2023-07-05T09:43:00.957Z,2.92
2023-07-05T09:45:31.096Z,3.00
2023-07-05T09:48:05.614Z,2.83
2023-07-05T09:50:36.136Z,2.58
2023-07-05T09:53:25.785Z,2.67
2023-07-05T09:56:06.252Z,2.78
2023-07-05T09:58:36.170Z,2.75
2023-07-05T10:01:06.923Z,2.60
2023-07-05T10:03:40.888Z,2.85
2023-07-05T10:06:14.678Z,2.50
2023-07-05T10:08:48.419Z,2.67
2023-07-05T10:11:26.336Z,2.65
2023-07-05T10:14:07.135Z,2.63
2023-07-05T10:16:55.929Z,2.70
2023-07-05T10:19:33.972Z,2.38
2023-07-05T10:22:10.289Z,2.67
2023-07-05T10:24:46.188Z,2.50
2023-07-05T10:27:25.777Z,2.80
2023-07-05T10:30:01.712Z,2.67
2023-07-05T10:32:32.400Z,2.25
2023-07-05T10:35:05.596Z,2.28
2023-07-05T10:37:37.138Z,2.03
2023-07-05T10:40:09.771Z,2.05
2023-07-05T10:42:40.295Z,2.13
2023-07-05T10:47:42.523Z,2.10
2023-07-05T10:52:53.632Z,1.83
2023-07-05T10:55:26.226Z,2.30
2023-07-05T10:57:58.170Z,2.10
2023-07-05T11:00:39.068Z,2.22
2023-07-05T11:03:13.323Z,2.08
2023-07-05T11:05:49.396Z,2.00
2023-07-05T11:08:20.840Z,2.00
2023-07-05T11:10:51.797Z,2.10
2023-07-05T11:13:23.613Z,2.00
2023-07-05T11:15:56.899Z,2.83
2023-07-05T11:18:29.966Z,2.20
2023-07-05T11:21:04.171Z,2.08
2023-07-05T11:23:58.899Z,2.33
2023-07-05T11:26:40.212Z,2.00
2023-07-05T11:29:49.347Z,1.92
2023-07-05T11:32:19.466Z,1.70
2023-07-05T11:34:54.613Z,2.10
2023-07-05T11:37:40.855Z,1.98
2023-07-05T11:40:40.472Z,2.25
2023-07-05T11:43:27.775Z,2.00
2023-07-05T11:45:57.587Z,2.10
2023-07-05T11:48:46.831Z,1.85
2023-07-05T11:51:37.416Z,2.03
2023-07-05T11:54:11.281Z,1.90
2023-07-05T14:01:04.690Z,1.90
2023-07-05T14:03:52.398Z,1.85
2023-07-05T14:06:26.841Z,1.70
2023-07-05T14:08:57.051Z,1.80
2023-07-05T14:11:29.342Z,1.90
2023-07-05T14:14:01.650Z,1.60
2023-07-05T14:16:34.741Z,1.85
2023-07-05T14:19:05.456Z,1.67
2023-07-05T14:21:38.253Z,1.92
2023-07-05T14:24:10.004Z,2.22
2023-07-05T14:26:40.407Z,2.05
2023-07-05T14:31:43.653Z,1.83
2023-07-05T14:34:16.712Z,1.60
2023-07-05T14:36:46.755Z,1.95
2023-07-05T14:39:16.604Z,1.75
2023-07-05T14:41:46.814Z,1.90
2023-07-05T14:44:16.931Z,1.98
2023-07-05T14:46:50.134Z,2.20
2023-07-05T14:49:20.000Z,1.77
2023-07-05T14:51:51.002Z,1.80
2023-07-05T14:54:21.752Z,1.75
2023-07-05T14:56:51.946Z,1.63
2023-07-05T14:59:22.657Z,1.70
2023-07-05T15:02:00.817Z,1.80
2023-07-05T15:04:30.678Z,2.20
2023-07-05T15:07:00.589Z,2.30
2023-07-05T15:09:30.560Z,1.90
2023-07-05T15:12:00.666Z,1.67
2023-07-05T15:14:30.501Z,1.83
2023-07-05T15:17:03.363Z,1.50
2023-07-05T15:19:33.234Z,1.73
2023-07-05T15:22:04.752Z,2.00
2023-07-05T15:24:34.884Z,2.08
2023-07-05T15:27:05.153Z,1.75
2023-07-05T15:29:35.017Z,1.67
2023-07-05T15:32:08.542Z,2.47
2023-07-05T15:34:42.503Z,1.75
2023-07-05T15:37:12.622Z,2.13
2023-07-05T15:39:42.461Z,1.70
2023-07-05T15:42:12.722Z,1.80
2023-07-05T15:44:42.764Z,2.25
2023-07-05T15:47:15.287Z,1.92
2023-07-05T15:49:45.938Z,1.75
2023-07-05T15:52:15.737Z,1.85
2023-07-05T15:54:45.652Z,1.90
2023-07-05T15:57:17.035Z,2.30
2023-07-05T15:59:58.905Z,2.08
2023-07-05T16:02:41.957Z,1.88
2023-07-05T16:05:13.307Z,1.90
2023-07-05T16:07:43.110Z,1.75
2023-07-05T16:10:14.977Z,1.90
2023-07-05T16:12:46.024Z,1.75
2023-07-05T16:15:16.224Z,2.10
2023-07-05T16:17:50.014Z,2.20
2023-07-05T16:20:20.015Z,1.85
2023-07-05T16:22:49.852Z,2.60
2023-07-05T16:25:20.918Z,1.88
2023-07-05T16:27:50.692Z,2.22
2023-07-05T16:30:21.746Z,2.05
2023-07-05T16:32:54.197Z,2.30
2023-07-05T16:35:25.031Z,2.13
2023-07-05T16:37:54.944Z,1.83
2023-07-05T16:40:25.026Z,2.03
2023-07-05T16:42:55.511Z,1.90
2023-07-05T16:45:27.626Z,2.20
2023-07-05T16:48:00.102Z,2.00
2023-07-05T16:50:30.110Z,2.42
2023-07-05T16:53:01.238Z,2.05
2023-07-05T16:55:31.161Z,2.22
2023-07-05T16:58:00.949Z,1.80
2023-07-05T17:00:30.740Z,2.33
2023-07-05T17:03:03.137Z,2.28
2023-07-05T17:05:33.880Z,2.10
2023-07-05T17:10:33.532Z,2.30
2023-07-05T17:13:04.097Z,2.00
2023-07-05T17:18:07.154Z,2.38
2023-07-05T17:20:37.726Z,2.10
2023-07-05T17:23:07.665Z,2.70
2023-07-05T17:25:37.798Z,2.08
2023-07-05T17:28:09.819Z,2.10
2023-07-05T17:30:41.563Z,2.35
2023-07-05T17:33:13.988Z,2.28
2023-07-05T17:35:47.715Z,2.50
2023-07-05T17:38:17.659Z,2.50
2023-07-05T17:40:50.451Z,2.50
2023-07-05T17:43:21.132Z,2.20
2023-07-05T17:45:51.172Z,2.42
2023-07-05T17:48:23.581Z,2.10
2023-07-05T17:50:53.608Z,2.47
2023-07-05T17:53:23.841Z,2.00
2023-07-05T17:55:56.742Z,2.60
2023-07-05T17:58:26.484Z,2.15
2023-07-05T18:00:56.569Z,2.05
2023-07-05T18:03:29.882Z,2.30
2023-07-05T18:05:59.735Z,2.10
2023-07-05T18:08:29.665Z,2.50
2023-07-05T18:11:00.496Z,2.50
2023-07-05T18:13:31.630Z,2.40
2023-07-05T18:16:03.106Z,2.47
2023-07-05T18:18:36.170Z,2.58
2023-07-05T18:21:08.017Z,2.30
2023-07-05T18:23:39.016Z,2.05
2023-07-05T18:26:13.615Z,2.10
2023-07-05T18:28:43.711Z,2.42
2023-07-05T18:31:14.047Z,1.85
2023-07-05T18:33:46.512Z,2.30
2023-07-05T18:36:21.291Z,2.10
2023-07-05T18:38:52.480Z,2.25
2023-07-05T18:41:24.569Z,2.80
2023-07-05T18:43:54.739Z,2.33
2023-07-05T18:46:24.735Z,2.53
2023-07-05T18:48:57.224Z,2.10
2023-07-05T18:51:26.956Z,1.98
2023-07-05T18:53:56.702Z,2.17
2023-07-05T18:56:26.524Z,2.10
2023-07-05T18:58:56.303Z,2.00
2023-07-05T19:01:26.138Z,2.00
2023-07-05T19:03:58.964Z,2.40
2023-07-05T19:06:29.818Z,1.95
2023-07-05T19:08:59.569Z,2.72
2023-07-05T19:11:31.911Z,2.33
2023-07-05T19:14:02.069Z,2.25
2023-07-05T19:16:32.111Z,2.28
2023-07-05T19:19:05.791Z,3.10
2023-07-05T19:21:35.884Z,2.55
2023-07-05T19:24:05.961Z,2.10
2023-07-05T19:26:36.286Z,2.22
2023-07-05T19:29:06.008Z,2.22
2023-07-05T19:31:36.044Z,2.25
2023-07-05T19:34:08.530Z,2.05
2023-07-05T19:36:38.545Z,2.40
2023-07-05T19:39:08.379Z,2.42
2023-07-05T19:41:38.247Z,2.03
2023-07-05T19:44:08.524Z,2.38
2023-07-05T19:46:38.731Z,2.05
2023-07-05T19:49:11.898Z,2.20
2023-07-05T19:51:41.780Z,2.38
2023-07-05T19:54:11.666Z,2.42
2023-07-05T19:56:41.937Z,2.30
2023-07-05T20:01:54.330Z,2.33
2023-07-05T20:04:27.304Z,2.47
2023-07-05T20:06:57.111Z,2.28
2023-07-05T20:09:27.068Z,2.70
2023-07-05T20:11:56.864Z,2.40
2023-07-05T20:14:27.061Z,2.53
2023-07-05T20:16:57.205Z,2.33
2023-07-05T20:19:33.290Z,2.45
2023-07-05T20:22:03.048Z,2.40
2023-07-05T20:24:32.747Z,2.25
2023-07-05T20:27:03.030Z,2.40
2023-07-05T20:29:34.170Z,2.05
2023-07-05T20:32:04.022Z,2.47
2023-07-05T20:34:36.784Z,2.00
2023-07-05T20:37:07.470Z,2.53
2023-07-05T20:39:37.181Z,3.72
2023-07-05T20:42:09.857Z,2.80
2023-07-05T20:44:39.734Z,2.53
2023-07-05T20:47:18.666Z,2.58
2023-07-05T20:49:51.718Z,2.60
2023-07-05T20:52:21.446Z,2.33
2023-07-05T20:54:51.137Z,2.72
2023-07-05T20:57:22.110Z,2.90
2023-07-05T20:59:52.362Z,2.58
2023-07-05T21:02:22.123Z,2.65
2023-07-05T21:04:54.498Z,2.67
2023-07-05T21:07:26.094Z,2.60
2023-07-05T21:09:55.804Z,2.80
2023-07-05T21:12:25.614Z,2.58
2023-07-05T21:14:55.381Z,3.55
2023-07-05T21:17:25.164Z,2.70
2023-07-05T21:19:57.498Z,2.35
2023-07-05T21:22:27.312Z,2.60
2023-07-05T21:24:57.058Z,3.03
2023-07-05T21:27:26.800Z,2.50
2023-07-05T21:29:56.570Z,2.72
2023-07-05T21:32:26.383Z,2.78
2023-07-05T21:34:58.750Z,3.22
2023-07-05T21:37:28.460Z,2.78
2023-07-05T21:39:58.230Z,2.90
2023-07-05T21:42:28.274Z,2.60
2023-07-05T21:44:58.269Z,2.70
2023-07-05T21:47:28.060Z,2.95
2023-07-05T21:50:00.461Z,3.35
2023-07-05T21:52:30.738Z,2.88
2023-07-05T21:55:00.639Z,3.22
2023-07-05T21:57:30.478Z,2.90
2023-07-05T22:00:00.247Z,3.00
2023-07-05T22:02:30.684Z,2.92
2023-07-05T22:05:03.624Z,3.00
2023-07-05T22:07:33.809Z,3.28
2023-07-05T22:10:03.514Z,2.80
2023-07-05T22:12:33.231Z,2.90
2023-07-05T22:15:03.308Z,2.63
2023-07-05T22:17:33.627Z,3.33
2023-07-05T22:20:12.773Z,2.95
2023-07-05T22:22:44.274Z,2.75
2023-07-05T22:25:14.776Z,2.75
2023-07-05T22:27:44.603Z,2.78
2023-07-05T22:30:16.176Z,2.92
2023-07-05T22:32:46.526Z,2.90
2023-07-05T22:35:20.078Z,3.95
2023-07-05T22:37:53.898Z,3.65
2023-07-05T22:40:24.927Z,3.20
2023-07-05T22:42:54.771Z,3.58
2023-07-05T22:45:26.576Z,3.58
2023-07-05T22:47:58.223Z,4.50
2023-07-05T22:50:30.729Z,3.40
2023-07-05T22:53:00.838Z,3.40
2023-07-05T22:55:30.606Z,3.40
2023-07-05T22:58:00.330Z,3.17
2023-07-05T23:00:30.182Z,3.88
2023-07-05T23:03:00.238Z,3.53
2023-07-05T23:05:32.700Z,3.50
2023-07-05T23:08:02.650Z,3.63
2023-07-05T23:10:32.397Z,3.38
2023-07-05T23:13:02.380Z,3.40
2023-07-05T23:15:32.551Z,3.85
2023-07-05T23:18:02.463Z,3.60
2023-07-05T23:20:36.096Z,3.58
2023-07-05T23:23:06.461Z,3.95
2023-07-05T23:25:36.323Z,4.22
2023-07-05T23:28:07.266Z,3.67
2023-07-05T23:30:37.371Z,3.72
2023-07-05T23:33:08.241Z,3.40
2023-07-05T23:35:40.585Z,3.28
2023-07-05T23:38:10.332Z,3.95
2023-07-05T23:40:40.073Z,3.55
2023-07-05T23:43:09.820Z,3.63
2023-07-05T23:45:39.920Z,3.40
2023-07-05T23:48:10.573Z,3.17
2023-07-05T23:50:43.018Z,3.80
2023-07-05T23:53:14.327Z,3.50
2023-07-05T23:55:47.707Z,3.85
2023-07-05T23:58:17.796Z,3.72
